Time;durP1;ratioP1;P1;durP2;ratioP2;P2;SDS_P1;SDS_P2;PMS_P1;PMS_P2;Temp;Humidity;BMP_temperature;BMP_pressure;BME280_temperature;BME280_humidity;BME280_pressure;Samples;Min_cycle;Max_cycle;Signal;HPM_P1;HPM_P2
2022/11/27 00:00:17;;;;;;;7.90;7.00;;;;;;;;;;5065203;28;20841;-80
2022/11/27 00:02:43;;;;;;;5.50;4.53;;;;;;;;;;5067281;28;20214;-80
2022/11/27 00:05:10;;;;;;;4.80;4.30;;;;;;;;;;5063599;28;20201;-80
2022/11/27 00:07:37;;;;;;;5.37;3.87;;;;;;;;;;5054636;28;20595;-81
2022/11/27 00:10:05;;;;;;;4.80;3.67;;;;;;;;;;5052469;28;20213;-80
2022/11/27 00:12:32;;;;;;;3.43;3.13;;;;;;;;;;5052338;28;20673;-80
2022/11/27 00:14:59;;;;;;;3.93;3.47;;;;;;;;;;5051901;28;20220;-81
2022/11/27 00:17:27;;;;;;;3.40;2.73;;;;;;;;;;5051964;28;20737;-80
2022/11/27 00:19:54;;;;;;;3.70;2.80;;;;;;;;;;5051797;28;20206;-80
2022/11/27 00:22:21;;;;;;;3.80;3.20;;;;;;;;;;5051731;28;20238;-79
2022/11/27 00:24:47;;;;;;;3.10;2.80;;;;;;;;;;5056720;28;20205;-80
2022/11/27 00:27:14;;;;;;;3.80;3.03;;;;;;;;;;5060788;28;20217;-80
2022/11/27 00:29:41;;;;;;;4.00;3.00;;;;;;;;;;5051796;28;20206;-81
2022/11/27 00:32:08;;;;;;;3.73;3.30;;;;;;;;;;5052000;28;20601;-80
2022/11/27 00:34:36;;;;;;;5.90;3.33;;;;;;;;;;5051336;28;20209;-80
2022/11/27 00:37:03;;;;;;;3.40;3.10;;;;;;;;;;5059214;28;21014;-80
2022/11/27 00:39:30;;;;;;;3.30;3.00;;;;;;;;;;5061644;28;20202;-80
2022/11/27 00:41:56;;;;;;;5.23;3.13;;;;;;;;;;5051694;28;20592;-80
2022/11/27 00:44:23;;;;;;;3.90;3.00;;;;;;;;;;5051621;28;20200;-81
2022/11/27 00:46:50;;;;;;;3.67;3.10;;;;;;;;;;5051162;28;20201;-80
2022/11/27 00:49:17;;;;;;;3.43;2.93;;;;;;;;;;5051096;28;20201;-80
2022/11/27 00:51:45;;;;;;;3.50;2.87;;;;;;;;;;5064054;28;20201;-79
2022/11/27 00:54:12;;;;;;;3.57;2.80;;;;;;;;;;5051970;28;20754;-80
2022/11/27 00:56:39;;;;;;;3.20;2.80;;;;;;;;;;5063849;28;20608;-79
2022/11/27 00:59:07;;;;;;;3.40;2.83;;;;;;;;;;5051645;28;20220;-79
2022/11/27 01:01:36;;;;;;;4.13;2.80;;;;;;;;;;5050913;28;20272;-79
2022/11/27 01:04:05;;;;;;;3.17;2.67;;;;;;;;;;5051267;28;20209;-79
2022/11/27 01:06:32;;;;;;;4.20;3.07;;;;;;;;;;5051031;28;20210;-80
2022/11/27 01:09:00;;;;;;;3.10;2.80;;;;;;;;;;5051223;28;20210;-80
2022/11/27 01:11:29;;;;;;;2.27;2.13;;;;;;;;;;5050937;28;20209;-79
2022/11/27 01:13:57;;;;;;;2.83;2.63;;;;;;;;;;5051099;28;20726;-79
2022/11/27 01:16:25;;;;;;;3.50;2.60;;;;;;;;;;5050304;28;20232;-79
2022/11/27 01:18:54;;;;;;;2.83;2.57;;;;;;;;;;5051043;28;20677;-79
2022/11/27 01:21:21;;;;;;;5.47;2.40;;;;;;;;;;5050920;28;20244;-79
2022/11/27 01:23:49;;;;;;;2.73;2.47;;;;;;;;;;5050953;28;20201;-79
2022/11/27 01:26:18;;;;;;;3.60;3.30;;;;;;;;;;5050723;28;20213;-80
2022/11/27 01:28:45;;;;;;;4.13;2.70;;;;;;;;;;5050350;28;20205;-79
2022/11/27 01:31:15;;;;;;;3.50;3.20;;;;;;;;;;5050666;28;20206;-79
2022/11/27 01:33:42;;;;;;;2.43;2.23;;;;;;;;;;5064805;28;20298;-79
2022/11/27 01:36:10;;;;;;;4.00;3.20;;;;;;;;;;5051026;28;20601;-79
2022/11/27 01:38:37;;;;;;;3.97;2.60;;;;;;;;;;5064360;28;20206;-79
2022/11/27 01:41:05;;;;;;;3.80;2.60;;;;;;;;;;5050526;28;20643;-80
2022/11/27 01:43:41;;;;;;;3.43;2.77;;;;;;;;;;5064417;28;20250;-80
2022/11/27 01:46:31;;;;;;;3.10;2.80;;;;;;;;;;5050750;28;20198;-79
2022/11/27 01:49:03;;;;;;;3.20;2.73;;;;;;;;;;5064315;28;20281;-79
2022/11/27 01:51:30;;;;;;;2.97;2.37;;;;;;;;;;5061200;28;20208;-79
2022/11/27 01:53:58;;;;;;;2.73;2.53;;;;;;;;;;5053132;28;20209;-79
2022/11/27 01:56:26;;;;;;;4.73;2.77;;;;;;;;;;5050302;28;20222;-80
2022/11/27 01:58:54;;;;;;;8.57;7.57;;;;;;;;;;5050549;28;20212;-79
2022/11/27 02:01:23;;;;;;;5.80;4.70;;;;;;;;;;5049962;28;20206;-80
2022/11/27 02:03:49;;;;;;;7.53;5.33;;;;;;;;;;5050315;28;20640;-80
2022/11/27 02:06:17;;;;;;;4.83;4.43;;;;;;;;;;5050231;28;20194;-80
2022/11/27 02:08:43;;;;;;;5.77;5.00;;;;;;;;;;5050647;28;20201;-79
2022/11/27 02:11:14;;;;;;;7.03;4.33;;;;;;;;;;5049878;28;20684;-79
2022/11/27 02:13:44;;;;;;;5.70;4.40;;;;;;;;;;5050667;28;20202;-79
2022/11/27 02:16:17;;;;;;;4.70;3.83;;;;;;;;;;5067187;28;20202;-79
2022/11/27 02:19:00;;;;;;;5.40;4.33;;;;;;;;;;5054744;28;20209;-80
2022/11/27 02:21:33;;;;;;;3.70;3.33;;;;;;;;;;5054210;28;20197;-80
2022/11/27 02:24:27;;;;;;;5.13;3.83;;;;;;;;;;5054461;28;20205;-79
2022/11/27 02:27:15;;;;;;;4.13;3.70;;;;;;;;;;5054587;28;20202;-79
2022/11/27 02:29:45;;;;;;;3.90;3.27;;;;;;;;;;5054368;28;20259;-79
2022/11/27 02:32:16;;;;;;;3.50;3.20;;;;;;;;;;5054426;28;20229;-79
2022/11/27 02:34:46;;;;;;;4.10;3.67;;;;;;;;;;5067975;28;20205;-79
2022/11/27 02:37:17;;;;;;;4.13;3.20;;;;;;;;;;5059319;28;20307;-79
2022/11/27 02:39:51;;;;;;;6.60;3.27;;;;;;;;;;5061526;28;20206;-80
2022/11/27 02:42:20;;;;;;;4.03;3.63;;;;;;;;;;5054198;28;20627;-80
2022/11/27 02:44:51;;;;;;;4.93;3.73;;;;;;;;;;5064162;28;20211;-81
2022/11/27 02:47:18;;;;;;;4.67;3.87;;;;;;;;;;5057565;28;20194;-80
2022/11/27 02:49:46;;;;;;;4.17;3.77;;;;;;;;;;5053665;28;20639;-79
2022/11/27 02:52:13;;;;;;;3.57;3.27;;;;;;;;;;5053335;28;20198;-79
2022/11/27 02:54:42;;;;;;;4.33;3.50;;;;;;;;;;5053516;28;20217;-80
2022/11/27 02:57:09;;;;;;;5.23;3.67;;;;;;;;;;5067772;28;20225;-79
2022/11/27 02:59:36;;;;;;;5.03;4.17;;;;;;;;;;5053615;28;20210;-80
2022/11/27 03:02:09;;;;;;;3.60;3.30;;;;;;;;;;5053806;28;20202;-79
2022/11/27 03:04:39;;;;;;;5.83;3.50;;;;;;;;;;5053350;28;20213;-80
2022/11/27 03:07:09;;;;;;;6.47;4.73;;;;;;;;;;5053453;28;20202;-79
2022/11/27 03:09:37;;;;;;;4.83;3.93;;;;;;;;;;5053184;28;20205;-79
2022/11/27 03:12:05;;;;;;;4.50;3.40;;;;;;;;;;5053283;28;20739;-79
2022/11/27 03:14:32;;;;;;;8.40;3.47;;;;;;;;;;5053364;28;20221;-79
2022/11/27 03:17:04;;;;;;;4.17;3.27;;;;;;;;;;5053343;28;20610;-80
2022/11/27 03:19:39;;;;;;;3.83;3.33;;;;;;;;;;5052590;28;20201;-80
2022/11/27 03:22:06;;;;;;;5.43;4.00;;;;;;;;;;5053401;28;20646;-79
2022/11/27 03:24:35;;;;;;;5.33;4.10;;;;;;;;;;5052934;28;20275;-80
2022/11/27 03:27:03;;;;;;;4.67;3.20;;;;;;;;;;5053153;28;20240;-79
2022/11/27 03:29:35;;;;;;;3.67;3.20;;;;;;;;;;5052743;28;20285;-79
2022/11/27 03:32:02;;;;;;;3.50;3.20;;;;;;;;;;5052706;28;20709;-79
2022/11/27 03:34:29;;;;;;;4.07;3.13;;;;;;;;;;5053307;28;20271;-80
2022/11/27 03:36:57;;;;;;;4.47;2.97;;;;;;;;;;5055729;28;20229;-79
2022/11/27 03:39:24;;;;;;;2.90;2.63;;;;;;;;;;5063724;28;20599;-80
2022/11/27 03:41:57;;;;;;;4.83;3.37;;;;;;;;;;5053677;28;20213;-80
2022/11/27 03:44:28;;;;;;;2.97;2.53;;;;;;;;;;5064318;28;20202;-79
2022/11/27 03:47:04;;;;;;;3.57;3.27;;;;;;;;;;5052675;28;20209;-79
2022/11/27 03:49:36;;;;;;;5.77;4.10;;;;;;;;;;5052782;28;20208;-79
2022/11/27 03:52:08;;;;;;;50.30;28.80;;;;;;;;;;5052356;28;20206;-79
2022/11/27 03:54:41;;;;;;;46.00;25.10;;;;;;;;;;5052788;28;20209;-79
2022/11/27 03:57:14;;;;;;;16.43;12.53;;;;;;;;;;5066307;28;20228;-79
2022/11/27 03:59:43;;;;;;;13.47;10.20;;;;;;;;;;5052468;28;20645;-79
2022/11/27 04:02:13;;;;;;;5.37;4.87;;;;;;;;;;5052560;28;20701;-79
2022/11/27 04:04:40;;;;;;;5.50;4.97;;;;;;;;;;5052438;28;20229;-79
2022/11/27 04:07:10;;;;;;;4.87;3.97;;;;;;;;;;5052839;28;20198;-79
2022/11/27 04:09:37;;;;;;;4.23;3.83;;;;;;;;;;5052025;28;20280;-79
2022/11/27 04:12:04;;;;;;;3.83;3.20;;;;;;;;;;5052206;28;20206;-79
2022/11/27 04:14:30;;;;;;;4.90;3.77;;;;;;;;;;5052323;28;20213;-79
2022/11/27 04:16:57;;;;;;;3.73;3.00;;;;;;;;;;5052179;28;20233;-79
2022/11/27 04:19:24;;;;;;;7.00;6.03;;;;;;;;;;5051817;28;20205;-79
2022/11/27 04:21:51;;;;;;;6.43;4.90;;;;;;;;;;5052121;28;20205;-79
2022/11/27 04:24:19;;;;;;;5.20;4.60;;;;;;;;;;5063034;28;20231;-79
2022/11/27 04:26:46;;;;;;;9.50;7.17;;;;;;;;;;5050710;28;20600;-79
2022/11/27 04:29:12;;;;;;;5.87;5.30;;;;;;;;;;5052002;28;20252;-79
2022/11/27 04:31:39;;;;;;;5.87;5.27;;;;;;;;;;5051344;28;20260;-79
2022/11/27 04:34:06;;;;;;;5.27;4.50;;;;;;;;;;5052093;28;20210;-79
2022/11/27 04:36:33;;;;;;;6.47;5.00;;;;;;;;;;5051487;28;20198;-79
2022/11/27 04:38:59;;;;;;;6.23;5.00;;;;;;;;;;5065118;28;20731;-79
2022/11/27 04:41:28;;;;;;;6.60;5.33;;;;;;;;;;5051317;28;20212;-79
2022/11/27 04:43:55;;;;;;;8.20;4.67;;;;;;;;;;5051375;28;20198;-79
2022/11/27 04:46:22;;;;;;;10.97;7.30;;;;;;;;;;5051434;28;20285;-80
2022/11/27 04:48:48;;;;;;;23.87;12.73;;;;;;;;;;5065734;28;20630;-79
2022/11/27 04:51:15;;;;;;;20.97;11.80;;;;;;;;;;5051015;28;20206;-79
2022/11/27 04:53:42;;;;;;;13.47;7.77;;;;;;;;;;5051489;28;20228;-79
2022/11/27 04:56:09;;;;;;;7.90;5.67;;;;;;;;;;5050373;28;20211;-78
2022/11/27 04:58:37;;;;;;;18.90;10.77;;;;;;;;;;5051136;28;20730;-79
2022/11/27 05:01:03;;;;;;;8.37;5.50;;;;;;;;;;5058612;28;20194;-79
2022/11/27 05:03:30;;;;;;;6.57;4.73;;;;;;;;;;5050656;28;20205;-79
2022/11/27 05:05:57;;;;;;;6.73;4.80;;;;;;;;;;5050763;28;20193;-79
2022/11/27 05:08:25;;;;;;;13.43;8.57;;;;;;;;;;5054673;28;20251;-80
2022/11/27 05:10:59;;;;;;;11.20;7.83;;;;;;;;;;5059261;28;20206;-79
2022/11/27 05:13:26;;;;;;;8.53;6.03;;;;;;;;;;5051105;28;20201;-79
2022/11/27 05:15:54;;;;;;;8.53;6.33;;;;;;;;;;5050762;28;20198;-78
2022/11/27 05:18:21;;;;;;;11.00;6.90;;;;;;;;;;5050835;28;20233;-79
2022/11/27 05:20:48;;;;;;;7.53;5.80;;;;;;;;;;5049558;28;20209;-78
2022/11/27 05:23:15;;;;;;;5.17;4.50;;;;;;;;;;5050482;28;20267;-76
2022/11/27 05:25:42;;;;;;;5.63;5.00;;;;;;;;;;5050197;28;20202;-77
2022/11/27 05:28:08;;;;;;;5.90;5.40;;;;;;;;;;5064704;28;20206;-77
2022/11/27 05:30:35;;;;;;;4.43;3.70;;;;;;;;;;5050789;28;20289;-78
2022/11/27 05:33:03;;;;;;;6.47;4.93;;;;;;;;;;5050731;28;20225;-78
2022/11/27 05:35:30;;;;;;;3.70;3.13;;;;;;;;;;5056029;28;20193;-78
2022/11/27 05:37:57;;;;;;;4.27;3.17;;;;;;;;;;5057295;28;20778;-78
2022/11/27 05:40:24;;;;;;;8.00;5.53;;;;;;;;;;5058776;28;20194;-80
2022/11/27 05:42:50;;;;;;;11.47;7.60;;;;;;;;;;5050525;28;20642;-78
2022/11/27 05:45:17;;;;;;;17.13;12.30;;;;;;;;;;5057302;28;20201;-79
2022/11/27 05:47:47;;;;;;;18.80;12.67;;;;;;;;;;5056669;28;20666;-78
2022/11/27 05:50:15;;;;;;;16.17;11.43;;;;;;;;;;5052893;28;20197;-77
2022/11/27 05:52:42;;;;;;;21.07;13.23;;;;;;;;;;5056135;28;20215;-76
2022/11/27 05:55:09;;;;;;;16.47;12.30;;;;;;;;;;5059379;28;20634;-76
2022/11/27 05:57:36;;;;;;;14.60;10.87;;;;;;;;;;5049999;28;20240;-78
2022/11/27 06:00:04;;;;;;;15.10;9.30;;;;;;;;;;5055706;28;20209;-77
2022/11/27 06:02:31;;;;;;;17.93;12.57;;;;;;;;;;5049898;28;20289;-77
2022/11/27 06:04:58;;;;;;;25.50;18.03;;;;;;;;;;5058028;28;20197;-77
2022/11/27 06:07:26;;;;;;;21.77;14.97;;;;;;;;;;5059831;28;20714;-77
2022/11/27 06:09:53;;;;;;;13.57;10.40;;;;;;;;;;5051006;28;20229;-80
2022/11/27 06:12:20;;;;;;;10.47;8.80;;;;;;;;;;5050653;28;20198;-80
2022/11/27 06:14:47;;;;;;;8.57;7.77;;;;;;;;;;5056614;28;20300;-80
2022/11/27 06:17:15;;;;;;;8.50;7.60;;;;;;;;;;5066967;28;20201;-80
2022/11/27 06:19:42;;;;;;;9.23;8.07;;;;;;;;;;5055599;28;20197;-80
2022/11/27 06:22:09;;;;;;;22.73;15.50;;;;;;;;;;5067344;28;20193;-80
2022/11/27 06:24:37;;;;;;;23.23;15.37;;;;;;;;;;5057816;28;20213;-80
2022/11/27 06:27:04;;;;;;;16.00;12.50;;;;;;;;;;5051111;28;20210;-80
2022/11/27 06:29:31;;;;;;;13.57;10.37;;;;;;;;;;5056517;28;20209;-80
2022/11/27 06:31:58;;;;;;;12.07;9.80;;;;;;;;;;5067349;28;20229;-79
2022/11/27 06:34:25;;;;;;;13.73;8.90;;;;;;;;;;5058536;28;20198;-80
2022/11/27 06:36:52;;;;;;;8.87;7.10;;;;;;;;;;5068652;28;20205;-80
2022/11/27 06:39:19;;;;;;;10.87;6.87;;;;;;;;;;5067819;28;20229;-80
2022/11/27 06:41:48;;;;;;;14.67;10.00;;;;;;;;;;5062465;28;20584;-79
2022/11/27 06:44:15;;;;;;;36.20;20.17;;;;;;;;;;5067661;28;20209;-80
2022/11/27 06:46:42;;;;;;;14.27;10.23;;;;;;;;;;5049754;28;20213;-80
2022/11/27 06:49:09;;;;;;;6.10;5.43;;;;;;;;;;5061432;28;20672;-80
2022/11/27 06:51:36;;;;;;;6.53;5.57;;;;;;;;;;5046952;28;20206;-80
2022/11/27 06:54:04;;;;;;;6.63;5.93;;;;;;;;;;5051284;28;20757;-80
2022/11/27 06:56:31;;;;;;;10.17;8.10;;;;;;;;;;5081907;28;20198;-80
2022/11/27 06:59:01;;;;;;;6.70;6.00;;;;;;;;;;5060085;28;20234;-80
2022/11/27 07:01:30;;;;;;;4.97;4.07;;;;;;;;;;5051225;28;20618;-80
2022/11/27 07:03:57;;;;;;;5.03;4.47;;;;;;;;;;5053273;28;20202;-80
2022/11/27 07:06:26;;;;;;;7.67;4.90;;;;;;;;;;5053678;28;20235;-80
2022/11/27 07:08:54;;;;;;;12.20;8.97;;;;;;;;;;5065120;28;20202;-80
2022/11/27 07:11:22;;;;;;;8.97;7.20;;;;;;;;;;5053273;28;20742;-80
2022/11/27 07:13:50;;;;;;;54.13;39.23;;;;;;;;;;5058558;28;20197;-79
2022/11/27 07:16:19;;;;;;;21.40;16.93;;;;;;;;;;5069248;28;20205;-80
2022/11/27 07:18:48;;;;;;;22.63;16.50;;;;;;;;;;5064776;28;20234;-81
2022/11/27 07:21:15;;;;;;;14.10;11.43;;;;;;;;;;5062906;28;20263;-80
2022/11/27 07:23:43;;;;;;;10.20;8.00;;;;;;;;;;5068504;28;20221;-80
2022/11/27 07:26:12;;;;;;;12.17;10.00;;;;;;;;;;5079579;28;20202;-79
2022/11/27 07:28:42;;;;;;;14.77;12.37;;;;;;;;;;5055683;28;20662;-80
2022/11/27 07:31:10;;;;;;;14.67;11.37;;;;;;;;;;5051701;28;20237;-80
2022/11/27 07:33:38;;;;;;;11.60;8.93;;;;;;;;;;5051988;28;20287;-80
2022/11/27 07:36:08;;;;;;;9.67;7.43;;;;;;;;;;5052254;28;20205;-80
2022/11/27 07:38:35;;;;;;;17.83;13.93;;;;;;;;;;5066702;28;20224;-80
2022/11/27 07:41:03;;;;;;;9.13;6.83;;;;;;;;;;5060144;28;20209;-80
2022/11/27 07:43:31;;;;;;;16.43;12.07;;;;;;;;;;5058589;28;20202;-80
2022/11/27 07:45:58;;;;;;;10.17;7.53;;;;;;;;;;5064187;28;20202;-80
2022/11/27 07:48:26;;;;;;;13.50;9.03;;;;;;;;;;5071694;28;20213;-80
2022/11/27 07:50:54;;;;;;;20.73;15.63;;;;;;;;;;5053102;28;20578;-80
2022/11/27 07:53:21;;;;;;;25.00;21.33;;;;;;;;;;5059006;28;20206;-80
2022/11/27 07:55:48;;;;;;;19.13;16.03;;;;;;;;;;5064879;28;20218;-80
2022/11/27 07:58:15;;;;;;;16.97;14.57;;;;;;;;;;5052607;28;20241;-80
2022/11/27 08:00:42;;;;;;;21.07;17.23;;;;;;;;;;5051981;28;20198;-80
2022/11/27 08:03:10;;;;;;;13.10;11.27;;;;;;;;;;5052459;28;20213;-80
2022/11/27 08:05:37;;;;;;;11.60;8.33;;;;;;;;;;5067070;28;20201;-80
2022/11/27 08:08:07;;;;;;;10.87;9.57;;;;;;;;;;5058286;28;20201;-80
2022/11/27 08:10:38;;;;;;;12.93;9.40;;;;;;;;;;5065750;28;20255;-80
2022/11/27 08:13:06;;;;;;;8.17;5.07;;;;;;;;;;5060223;28;20221;-80
2022/11/27 08:15:33;;;;;;;5.17;4.50;;;;;;;;;;5067000;28;20198;-80
2022/11/27 08:18:00;;;;;;;2.97;2.70;;;;;;;;;;5070518;28;20208;-80
2022/11/27 08:20:28;;;;;;;3.73;3.43;;;;;;;;;;5067334;28;20620;-81
2022/11/27 08:22:54;;;;;;;4.47;4.07;;;;;;;;;;5052104;28;20260;-80
2022/11/27 08:25:23;;;;;;;4.13;3.63;;;;;;;;;;5051759;28;20712;-79
2022/11/27 08:27:50;;;;;;;6.37;4.70;;;;;;;;;;5053862;28;20190;-81
2022/11/27 08:30:17;;;;;;;3.63;3.30;;;;;;;;;;5063747;28;20663;-80
2022/11/27 08:32:44;;;;;;;5.17;4.60;;;;;;;;;;5068715;28;20236;-80
2022/11/27 08:35:12;;;;;;;6.47;5.00;;;;;;;;;;5060003;28;20202;-80
2022/11/27 08:37:38;;;;;;;4.27;3.87;;;;;;;;;;5065762;28;20197;-80
2022/11/27 08:40:07;;;;;;;4.80;4.30;;;;;;;;;;5055011;28;20232;-80
2022/11/27 08:42:39;;;;;;;4.50;3.60;;;;;;;;;;5063275;28;20198;-80
2022/11/27 08:45:08;;;;;;;5.23;4.73;;;;;;;;;;5064403;28;20193;-80
2022/11/27 08:47:36;;;;;;;4.87;4.20;;;;;;;;;;5068997;28;20197;-80
2022/11/27 08:50:04;;;;;;;5.40;4.23;;;;;;;;;;5068425;28;20197;-80
2022/11/27 08:52:32;;;;;;;3.40;3.10;;;;;;;;;;5069955;28;20690;-80
2022/11/27 08:54:59;;;;;;;3.97;3.10;;;;;;;;;;5066379;28;20216;-80
2022/11/27 08:57:25;;;;;;;4.43;3.57;;;;;;;;;;5062156;28;20206;-80
2022/11/27 08:59:54;;;;;;;3.80;2.90;;;;;;;;;;5051867;28;20224;-79
2022/11/27 09:02:21;;;;;;;3.03;2.73;;;;;;;;;;5060807;28;20614;-80
2022/11/27 09:04:48;;;;;;;3.87;2.37;;;;;;;;;;5094424;28;20209;-80
2022/11/27 09:07:18;;;;;;;3.17;2.87;;;;;;;;;;5058438;28;20697;-80
2022/11/27 09:09:45;;;;;;;2.80;2.50;;;;;;;;;;5062307;28;20603;-80
2022/11/27 09:12:12;;;;;;;2.53;2.30;;;;;;;;;;5067241;28;20252;-80
2022/11/27 09:14:40;;;;;;;1.97;1.83;;;;;;;;;;5060949;28;20202;-80
2022/11/27 09:17:09;;;;;;;3.13;2.60;;;;;;;;;;5050506;28;20259;-80
2022/11/27 09:19:39;;;;;;;2.70;2.23;;;;;;;;;;5061583;28;20225;-80
2022/11/27 09:22:06;;;;;;;3.13;2.13;;;;;;;;;;5067576;28;20204;-80
2022/11/27 09:24:33;;;;;;;2.80;2.20;;;;;;;;;;5066124;28;20749;-81
2022/11/27 09:27:00;;;;;;;1.60;1.50;;;;;;;;;;5103030;28;20600;-79
2022/11/27 09:29:27;;;;;;;1.60;1.50;;;;;;;;;;5070618;28;20205;-81
2022/11/27 09:31:54;;;;;;;2.20;1.97;;;;;;;;;;5095226;28;20229;-80
2022/11/27 09:34:23;;;;;;;1.57;1.47;;;;;;;;;;5059344;28;20205;-81
2022/11/27 09:36:51;;;;;;;3.57;1.97;;;;;;;;;;5059276;28;20216;-83
2022/11/27 09:39:19;;;;;;;2.43;2.23;;;;;;;;;;5065358;28;20216;-79
2022/11/27 09:41:47;;;;;;;2.90;2.23;;;;;;;;;;5059926;28;20213;-80
2022/11/27 09:44:23;;;;;;;3.10;2.77;;;;;;;;;;5049817;28;20681;-79
2022/11/27 09:46:51;;;;;;;2.63;2.30;;;;;;;;;;5063117;28;20239;-80
2022/11/27 09:49:22;;;;;;;2.30;1.90;;;;;;;;;;5064440;28;20425;-80
2022/11/27 09:51:55;;;;;;;8.03;5.50;;;;;;;;;;5088335;28;20285;-81
2022/11/27 09:54:25;;;;;;;2.57;2.37;;;;;;;;;;5085868;28;20224;-81
2022/11/27 09:56:54;;;;;;;2.93;2.73;;;;;;;;;;5063074;28;20640;-81
2022/11/27 09:59:24;;;;;;;1.70;1.60;;;;;;;;;;5058727;28;20229;-81
2022/11/27 10:01:51;;;;;;;1.33;1.23;;;;;;;;;;5066811;28;20205;-80
2022/11/27 10:04:20;;;;;;;2.00;1.80;;;;;;;;;;5070095;28;20213;-81
2022/11/27 10:07:06;;;;;;;2.70;2.50;;;;;;;;;;5064184;28;20221;-81
2022/11/27 10:09:43;;;;;;;3.57;3.27;;;;;;;;;;5066542;28;20207;-81
2022/11/27 10:12:14;;;;;;;1.70;1.60;;;;;;;;;;5059989;28;20204;-80
2022/11/27 10:14:48;;;;;;;1.93;1.73;;;;;;;;;;5061808;28;20684;-81
2022/11/27 10:17:19;;;;;;;3.30;2.50;;;;;;;;;;5055186;28;20684;-80
2022/11/27 10:20:00;;;;;;;6.80;4.37;;;;;;;;;;5056280;28;20232;-81
2022/11/27 10:22:37;;;;;;;2.50;1.90;;;;;;;;;;5064027;28;20209;-81
2022/11/27 10:25:11;;;;;;;1.63;1.53;;;;;;;;;;5053222;28;20688;-80
2022/11/27 10:27:51;;;;;;;1.30;1.20;;;;;;;;;;5061420;28;20262;-80
2022/11/27 10:30:20;;;;;;;3.30;3.00;;;;;;;;;;5054941;28;20208;-81
2022/11/27 10:32:49;;;;;;;2.73;2.13;;;;;;;;;;5056739;28;20702;-81
2022/11/27 10:35:18;;;;;;;2.43;2.00;;;;;;;;;;5055955;28;20213;-80
2022/11/27 10:37:49;;;;;;;3.27;1.87;;;;;;;;;;5063133;28;20201;-81
2022/11/27 10:40:24;;;;;;;1.77;1.67;;;;;;;;;;5058494;28;20303;-82
2022/11/27 10:42:56;;;;;;;3.47;2.83;;;;;;;;;;5055392;28;20205;-81
2022/11/27 10:45:26;;;;;;;2.37;1.80;;;;;;;;;;5061383;28;20202;-82
2022/11/27 10:47:53;;;;;;;2.73;1.67;;;;;;;;;;5050881;28;20206;-81
2022/11/27 10:50:20;;;;;;;2.60;2.40;;;;;;;;;;5052255;28;20235;-81
2022/11/27 10:52:53;;;;;;;5.77;4.17;;;;;;;;;;5054795;28;20212;-80
2022/11/27 10:55:28;;;;;;;3.70;3.33;;;;;;;;;;5063350;28;20208;-81
2022/11/27 10:58:04;;;;;;;7.30;6.70;;;;;;;;;;5057092;28;20201;-81
2022/11/27 11:00:31;;;;;;;4.40;3.47;;;;;;;;;;5065928;28;20295;-81
2022/11/27 11:03:02;;;;;;;3.13;2.33;;;;;;;;;;5057770;28;20202;-81
2022/11/27 11:05:30;;;;;;;2.40;2.00;;;;;;;;;;5053154;28;20210;-81
2022/11/27 11:08:01;;;;;;;1.53;1.40;;;;;;;;;;5059794;28;20255;-81
2022/11/27 11:10:34;;;;;;;1.70;1.60;;;;;;;;;;5070740;28;20682;-82
2022/11/27 11:13:06;;;;;;;1.70;1.60;;;;;;;;;;5062044;28;20202;-84
2022/11/27 11:15:33;;;;;;;4.43;4.00;;;;;;;;;;5053127;28;20198;-81
2022/11/27 11:17:59;;;;;;;3.53;3.23;;;;;;;;;;5065724;28;20586;-81
2022/11/27 11:20:26;;;;;;;5.17;3.50;;;;;;;;;;5059424;28;20352;-79
2022/11/27 11:22:53;;;;;;;4.30;3.10;;;;;;;;;;5065515;28;20198;-80
2022/11/27 11:25:22;;;;;;;2.60;2.40;;;;;;;;;;5066733;28;20224;-80
2022/11/27 11:27:50;;;;;;;4.27;3.37;;;;;;;;;;5064263;28;20205;-80
2022/11/27 11:30:21;;;;;;;2.97;2.40;;;;;;;;;;5063975;28;20223;-81
2022/11/27 11:32:48;;;;;;;2.20;2.00;;;;;;;;;;5064388;28;20716;-81
2022/11/27 11:35:25;;;;;;;2.83;2.60;;;;;;;;;;5058564;28;20202;-80
2022/11/27 11:37:53;;;;;;;3.20;2.90;;;;;;;;;;5061437;28;20208;-80
2022/11/27 11:40:24;;;;;;;11.43;6.97;;;;;;;;;;5053483;28;22463;-80
2022/11/27 11:42:53;;;;;;;8.73;6.47;;;;;;;;;;5059886;28;20744;-80
2022/11/27 11:45:21;;;;;;;3.07;2.57;;;;;;;;;;5063351;28;20212;-79
2022/11/27 11:47:50;;;;;;;3.23;2.70;;;;;;;;;;5061900;28;20347;-80
2022/11/27 11:50:27;;;;;;;4.53;2.83;;;;;;;;;;5066669;28;20197;-79
2022/11/27 11:52:59;;;;;;;3.93;3.17;;;;;;;;;;5068319;28;20201;-80
2022/11/27 11:55:31;;;;;;;5.00;3.83;;;;;;;;;;5061099;28;20209;-80
2022/11/27 11:58:09;;;;;;;5.37;2.90;;;;;;;;;;5052667;28;20260;-80
2022/11/27 12:00:44;;;;;;;3.13;2.83;;;;;;;;;;5064216;28;20315;-80
2022/11/27 12:03:25;;;;;;;5.30;3.70;;;;;;;;;;5053483;28;20681;-80
2022/11/27 12:06:13;;;;;;;4.40;2.30;;;;;;;;;;5052003;28;20711;-79
2022/11/27 12:08:51;;;;;;;2.70;2.50;;;;;;;;;;5052369;28;20198;-80
2022/11/27 12:11:24;;;;;;;5.27;4.10;;;;;;;;;;5059271;28;20240;-79
2022/11/27 12:14:00;;;;;;;9.50;6.80;;;;;;;;;;5063496;28;20198;-79
2022/11/27 12:16:31;;;;;;;4.20;3.77;;;;;;;;;;5053079;28;20201;-81
2022/11/27 12:19:09;;;;;;;4.17;3.37;;;;;;;;;;5063775;28;20585;-83
2022/11/27 12:21:44;;;;;;;4.13;3.63;;;;;;;;;;5065684;28;20201;-83
2022/11/27 12:24:25;;;;;;;3.73;3.27;;;;;;;;;;5068096;28;20259;-81
2022/11/27 12:27:05;;;;;;;3.73;2.50;;;;;;;;;;5067927;28;20595;-82
2022/11/27 12:29:56;;;;;;;2.37;1.93;;;;;;;;;;5062309;28;20205;-83
2022/11/27 12:32:34;;;;;;;14.10;8.03;;;;;;;;;;5066266;28;20217;-80
2022/11/27 12:35:20;;;;;;;4.20;3.50;;;;;;;;;;5066615;28;20276;-82
2022/11/27 12:37:54;;;;;;;5.23;3.87;;;;;;;;;;5057029;28;20205;-82
2022/11/27 12:40:34;;;;;;;4.63;3.60;;;;;;;;;;5068339;28;20613;-80
2022/11/27 12:43:08;;;;;;;3.87;3.23;;;;;;;;;;5060833;28;20198;-79
2022/11/27 12:45:39;;;;;;;8.07;6.53;;;;;;;;;;5051474;28;20201;-78
2022/11/27 12:48:12;;;;;;;4.10;3.23;;;;;;;;;;5062583;28;20596;-78
2022/11/27 12:50:42;;;;;;;7.10;5.20;;;;;;;;;;5053527;28;20665;-79
2022/11/27 12:53:29;;;;;;;6.57;3.97;;;;;;;;;;5051410;28;20206;-80
2022/11/27 12:56:02;;;;;;;3.33;2.77;;;;;;;;;;5051606;28;20240;-80
2022/11/27 12:58:33;;;;;;;3.13;2.83;;;;;;;;;;5063279;28;20201;-79
2022/11/27 13:01:03;;;;;;;4.27;2.90;;;;;;;;;;5060833;28;20223;-80
2022/11/27 13:03:35;;;;;;;2.33;2.13;;;;;;;;;;5052099;28;20270;-79
2022/11/27 13:06:07;;;;;;;3.03;2.73;;;;;;;;;;5057231;28;20221;-79
2022/11/27 13:08:43;;;;;;;5.17;3.87;;;;;;;;;;5064995;28;20194;-79
2022/11/27 13:11:13;;;;;;;5.13;3.60;;;;;;;;;;5052975;28;20205;-80
2022/11/27 13:13:44;;;;;;;7.20;5.60;;;;;;;;;;5062589;28;20698;-80
2022/11/27 13:16:14;;;;;;;5.13;4.00;;;;;;;;;;5052727;28;20201;-80
2022/11/27 13:18:44;;;;;;;6.57;4.00;;;;;;;;;;5059495;28;20205;-80
2022/11/27 13:21:13;;;;;;;6.40;4.53;;;;;;;;;;5050671;28;20229;-80
2022/11/27 13:23:40;;;;;;;2.67;2.47;;;;;;;;;;5059340;28;20217;-81
2022/11/27 13:26:14;;;;;;;8.77;4.57;;;;;;;;;;5052583;28;20220;-81
2022/11/27 13:28:43;;;;;;;3.17;2.43;;;;;;;;;;5070922;28;20205;-80
2022/11/27 13:31:17;;;;;;;2.37;2.17;;;;;;;;;;5066785;28;20216;-80
2022/11/27 13:33:45;;;;;;;3.27;2.57;;;;;;;;;;5056283;28;20236;-79
2022/11/27 13:36:20;;;;;;;2.97;2.57;;;;;;;;;;5059807;28;20251;-80
2022/11/27 13:38:54;;;;;;;2.73;2.33;;;;;;;;;;5063075;28;20202;-79
2022/11/27 13:41:21;;;;;;;2.80;2.40;;;;;;;;;;5049770;28;20221;-80
2022/11/27 13:43:50;;;;;;;2.87;2.60;;;;;;;;;;5054025;28;20205;-80
2022/11/27 13:46:21;;;;;;;2.67;2.47;;;;;;;;;;5060732;28;20292;-79
2022/11/27 13:48:51;;;;;;;4.20;2.50;;;;;;;;;;5058931;28;20208;-80
2022/11/27 13:51:27;;;;;;;4.43;3.50;;;;;;;;;;5050117;28;20209;-80
2022/11/27 13:53:53;;;;;;;13.70;11.83;;;;;;;;;;5050738;28;20204;-79
2022/11/27 13:56:31;;;;;;;2.73;2.53;;;;;;;;;;5065035;28;20204;-79
2022/11/27 13:58:59;;;;;;;3.33;2.80;;;;;;;;;;5054260;28;20204;-79
2022/11/27 14:01:26;;;;;;;2.70;1.90;;;;;;;;;;5048820;28;20229;-78
2022/11/27 14:03:53;;;;;;;2.47;2.27;;;;;;;;;;5063328;28;20569;-78
2022/11/27 14:06:25;;;;;;;2.30;2.10;;;;;;;;;;5049900;28;20197;-77
2022/11/27 14:08:56;;;;;;;2.10;1.90;;;;;;;;;;5063087;28;20206;-78
2022/11/27 14:11:35;;;;;;;5.03;3.57;;;;;;;;;;5049117;28;20284;-77
2022/11/27 14:14:14;;;;;;;11.07;7.33;;;;;;;;;;5049752;28;20213;-78
2022/11/27 14:16:41;;;;;;;8.07;7.27;;;;;;;;;;5049895;28;20206;-77
2022/11/27 14:19:24;;;;;;;3.23;2.93;;;;;;;;;;5050012;28;20201;-77
2022/11/27 14:21:51;;;;;;;7.10;6.03;;;;;;;;;;5049840;28;20241;-76
2022/11/27 14:24:27;;;;;;;3.13;2.83;;;;;;;;;;5049819;28;20659;-78
2022/11/27 14:26:57;;;;;;;5.97;5.03;;;;;;;;;;5050659;28;20558;-78
2022/11/27 14:29:29;;;;;;;5.60;5.10;;;;;;;;;;5061495;28;20201;-76
2022/11/27 14:31:58;;;;;;;4.10;3.70;;;;;;;;;;5056465;28;20224;-84
2022/11/27 14:34:26;;;;;;;5.73;4.87;;;;;;;;;;5070552;28;20258;-84
2022/11/27 14:36:53;;;;;;;8.80;7.00;;;;;;;;;;5055835;28;20204;-84
2022/11/27 14:39:25;;;;;;;5.90;4.43;;;;;;;;;;5059427;28;20201;-83
2022/11/27 14:41:59;;;;;;;3.33;2.47;;;;;;;;;;5056095;28;20229;-85
2022/11/27 14:44:28;;;;;;;3.37;3.07;;;;;;;;;;5062039;28;20746;-83
2022/11/27 14:46:56;;;;;;;2.70;2.47;;;;;;;;;;5065271;28;20212;-83
2022/11/27 14:49:25;;;;;;;3.83;3.07;;;;;;;;;;5062980;28;20256;-84
2022/11/27 14:51:52;;;;;;;2.70;2.50;;;;;;;;;;5064135;28;20590;-84